Time;durP1;ratioP1;P1;durP2;ratioP2;P2;SDS_P1;SDS_P2;PMS_P1;PMS_P2;Temp;Humidity;BMP_temperature;BMP_pressure;BME280_temperature;BME280_humidity;BME280_pressure;Samples;Min_cycle;Max_cycle;Signal;HPM_P1;HPM_P2
2022/08/17 00:00:12;;;;;;;;;;;26.80;37.40;;;;;;1577738;73;763;-58
2022/08/17 00:02:14;;;;;;;;;;;26.70;37.40;;;;;;1592346;74;1694;-60
2022/08/17 00:04:21;;;;;;;;;;;26.70;37.40;;;;;;1576344;74;1119;-60
2022/08/17 00:06:21;;;;;;;;;;;26.80;37.40;;;;;;1552249;73;1896;-59
2022/08/17 00:08:25;;;;;;;;;;;26.70;37.40;;;;;;1547257;75;1828;-58
2022/08/17 00:10:27;;;;;;;;;;;26.70;37.40;;;;;;1571366;75;1939;-59
2022/08/17 00:12:29;;;;;;;;;;;26.80;37.50;;;;;;1542573;75;1178;-60
2022/08/17 00:14:31;;;;;;;;;;;26.80;37.40;;;;;;1568445;75;704;-59
2022/08/17 00:16:33;;;;;;;;;;;26.70;37.50;;;;;;1552564;75;699;-60
2022/08/17 00:18:35;;;;;;;;;;;26.70;37.50;;;;;;1573536;75;673;-58
2022/08/17 00:20:37;;;;;;;;;;;26.80;37.40;;;;;;1572861;75;1502;-56
2022/08/17 00:22:39;;;;;;;;;;;26.70;37.60;;;;;;1549830;75;1177;-60
2022/08/17 00:24:41;;;;;;;;;;;26.80;37.50;;;;;;1554217;75;1934;-58
2022/08/17 00:26:43;;;;;;;;;;;26.70;37.40;;;;;;1547136;74;686;-57
2022/08/17 00:28:45;;;;;;;;;;;26.70;37.40;;;;;;1551461;75;759;-58
2022/08/17 00:30:47;;;;;;;;;;;26.70;37.40;;;;;;1556722;75;678;-59
2022/08/17 00:32:49;;;;;;;;;;;26.70;37.50;;;;;;1548699;75;1132;-58
2022/08/17 00:34:51;;;;;;;;;;;26.70;37.40;;;;;;1544733;75;773;-58
2022/08/17 00:36:53;;;;;;;;;;;26.70;37.50;;;;;;1565185;75;679;-59
2022/08/17 00:38:55;;;;;;;;;;;26.70;37.50;;;;;;1550066;74;649;-61
2022/08/17 00:40:59;;;;;;;;;;;26.80;37.40;;;;;;1551853;75;792;-58
2022/08/17 00:43:02;;;;;;;;;;;26.70;37.40;;;;;;1545774;74;2003;-59
2022/08/17 00:45:05;;;;;;;;;;;26.70;37.30;;;;;;1558217;75;1938;-59
2022/08/17 00:47:07;;;;;;;;;;;26.70;37.30;;;;;;1557868;75;1568;-58
2022/08/17 00:49:09;;;;;;;;;;;26.80;37.30;;;;;;1562229;75;692;-60
2022/08/17 00:51:21;;;;;;;;;;;26.70;37.30;;;;;;1556135;75;775;-58
2022/08/17 00:53:24;;;;;;;;;;;26.80;37.30;;;;;;1550748;75;1158;-60
2022/08/17 00:55:26;;;;;;;;;;;26.70;37.40;;;;;;1554987;74;665;-61
2022/08/17 00:57:29;;;;;;;;;;;26.70;37.30;;;;;;1566315;75;649;-61
2022/08/17 00:59:32;;;;;;;;;;;26.80;37.30;;;;;;1552249;75;1351;-58
2022/08/17 01:01:34;;;;;;;;;;;26.70;37.40;;;;;;1557252;75;1314;-61
2022/08/17 01:03:36;;;;;;;;;;;26.70;37.30;;;;;;1529285;76;1290;-60
2022/08/17 01:05:38;;;;;;;;;;;26.70;37.40;;;;;;1552696;75;1941;-58
2022/08/17 01:07:40;;;;;;;;;;;26.80;37.30;;;;;;1571694;75;640;-58
2022/08/17 01:09:42;;;;;;;;;;;26.70;37.40;;;;;;1579431;75;576;-59
2022/08/17 01:11:45;;;;;;;;;;;26.80;37.40;;;;;;1564012;75;808;-59
2022/08/17 01:13:46;;;;;;;;;;;26.70;37.40;;;;;;1564175;74;1178;-59
2022/08/17 01:15:50;;;;;;;;;;;26.60;37.40;;;;;;1552788;75;1567;-58
2022/08/17 01:17:52;;;;;;;;;;;26.70;37.50;;;;;;1579752;75;720;-58
2022/08/17 01:19:54;;;;;;;;;;;26.70;37.50;;;;;;1567366;75;751;-60
2022/08/17 01:22:15;;;;;;;;;;;26.70;37.30;;;;;;1574303;74;717;-58
2022/08/17 01:24:17;;;;;;;;;;;26.70;37.30;;;;;;1557981;74;1143;-57
2022/08/17 01:26:19;;;;;;;;;;;26.70;37.30;;;;;;1564376;74;1926;-57
2022/08/17 01:28:21;;;;;;;;;;;26.70;37.30;;;;;;1575922;75;682;-57
2022/08/17 01:30:23;;;;;;;;;;;26.70;37.30;;;;;;1558506;75;1583;-59
2022/08/17 01:32:26;;;;;;;;;;;26.70;37.30;;;;;;1555509;74;1172;-60
2022/08/17 01:34:28;;;;;;;;;;;26.70;37.30;;;;;;1560344;75;617;-58
2022/08/17 01:36:30;;;;;;;;;;;26.60;37.30;;;;;;1561331;74;682;-58
2022/08/17 01:38:33;;;;;;;;;;;26.70;37.30;;;;;;1559406;74;697;-58
2022/08/17 01:40:37;;;;;;;;;;;26.70;37.30;;;;;;1570753;75;682;-58
2022/08/17 01:42:41;;;;;;;;;;;26.60;37.30;;;;;;1576647;75;1571;-58
2022/08/17 01:44:43;;;;;;;;;;;26.70;37.30;;;;;;1565226;74;1475;-57
2022/08/17 01:46:45;;;;;;;;;;;26.70;37.30;;;;;;1573121;74;1938;-57
2022/08/17 01:48:47;;;;;;;;;;;26.70;37.30;;;;;;1579826;75;674;-58
2022/08/17 01:50:50;;;;;;;;;;;26.70;37.30;;;;;;1565963;75;688;-59
2022/08/17 01:52:54;;;;;;;;;;;26.70;37.40;;;;;;1565920;75;1207;-59
2022/08/17 01:54:55;;;;;;;;;;;26.70;37.40;;;;;;1572156;75;793;-57
2022/08/17 01:56:57;;;;;;;;;;;26.60;37.40;;;;;;1576214;74;681;-61
2022/08/17 01:58:59;;;;;;;;;;;26.70;37.30;;;;;;1558947;75;1537;-59
2022/08/17 02:01:01;;;;;;;;;;;26.70;37.40;;;;;;1568048;75;666;-59
2022/08/17 02:03:03;;;;;;;;;;;26.70;37.30;;;;;;1562973;75;1210;-61
2022/08/17 02:05:05;;;;;;;;;;;26.60;37.30;;;;;;1576131;74;1926;-58
2022/08/17 02:07:07;;;;;;;;;;;26.60;37.30;;;;;;1580115;74;1106;-59
2022/08/17 02:09:10;;;;;;;;;;;26.70;37.40;;;;;;1575925;74;762;-58
2022/08/17 02:11:13;;;;;;;;;;;26.80;37.30;;;;;;1568797;75;669;-61
2022/08/17 02:13:15;;;;;;;;;;;26.70;37.40;;;;;;1576701;75;1521;-59
2022/08/17 02:15:17;;;;;;;;;;;26.70;37.40;;;;;;1578453;73;717;-58
2022/08/17 02:17:19;;;;;;;;;;;26.70;37.30;;;;;;1580165;73;698;-58
2022/08/17 02:19:21;;;;;;;;;;;26.70;37.40;;;;;;1571763;74;793;-61
2022/08/17 02:21:23;;;;;;;;;;;26.60;37.40;;;;;;1572523;74;674;-59
2022/08/17 02:23:26;;;;;;;;;;;26.70;37.40;;;;;;1563666;74;1151;-60
2022/08/17 02:25:28;;;;;;;;;;;26.70;37.40;;;;;;1584483;73;1909;-59
2022/08/17 02:27:30;;;;;;;;;;;26.70;37.30;;;;;;1570202;74;701;-58
2022/08/17 02:29:32;;;;;;;;;;;26.70;37.40;;;;;;1573640;74;659;-60
2022/08/17 02:31:34;;;;;;;;;;;26.60;37.40;;;;;;1569781;74;695;-60
2022/08/17 02:33:36;;;;;;;;;;;26.70;37.40;;;;;;1588724;73;1157;-57
2022/08/17 02:37:41;;;;;;;;;;;26.70;37.50;;;;;;1540078;74;232211;-55
2022/08/17 02:39:44;;;;;;;;;;;26.70;37.40;;;;;;1544780;75;1446;-53
2022/08/17 02:41:46;;;;;;;;;;;26.70;37.40;;;;;;1543001;75;690;-53
2022/08/17 02:43:48;;;;;;;;;;;26.60;37.40;;;;;;1530761;75;1195;-56
2022/08/17 02:45:50;;;;;;;;;;;26.60;37.40;;;;;;1527947;76;1921;-53
2022/08/17 02:47:52;;;;;;;;;;;26.60;37.50;;;;;;1530244;76;704;-56
2022/08/17 02:49:54;;;;;;;;;;;26.70;37.50;;;;;;1527474;76;676;-56
2022/08/17 02:51:56;;;;;;;;;;;26.60;37.50;;;;;;1529124;76;699;-54
2022/08/17 02:53:58;;;;;;;;;;;26.60;37.40;;;;;;1532394;76;1432;-57
2022/08/17 02:56:00;;;;;;;;;;;26.60;37.50;;;;;;1516980;76;674;-55
2022/08/17 02:58:02;;;;;;;;;;;26.60;37.50;;;;;;1521497;76;761;-55
2022/08/17 03:00:06;;;;;;;;;;;26.60;37.50;;;;;;1527368;76;728;-57
2022/08/17 03:02:09;;;;;;;;;;;26.60;37.50;;;;;;1528749;76;659;-57
2022/08/17 03:04:11;;;;;;;;;;;26.60;37.50;;;;;;1526041;76;1127;-57
2022/08/17 03:06:13;;;;;;;;;;;26.60;37.50;;;;;;1531062;76;1940;-55
2022/08/17 03:08:15;;;;;;;;;;;26.60;37.50;;;;;;1529607;76;1468;-55
2022/08/17 03:10:17;;;;;;;;;;;26.70;37.50;;;;;;1526279;76;711;-55
2022/08/17 03:12:18;;;;;;;;;;;26.50;37.50;;;;;;1523941;76;700;-58
2022/08/17 03:14:20;;;;;;;;;;;26.60;37.50;;;;;;1527389;76;1099;-58
2022/08/17 03:16:22;;;;;;;;;;;26.60;37.60;;;;;;1525491;76;848;-56
2022/08/17 03:18:24;;;;;;;;;;;26.50;37.60;;;;;;1530316;76;718;-55
2022/08/17 03:20:27;;;;;;;;;;;26.50;37.60;;;;;;1529931;76;680;-54
2022/08/17 03:22:29;;;;;;;;;;;26.60;37.60;;;;;;1540414;75;1437;-53
2022/08/17 03:24:30;;;;;;;;;;;26.60;37.60;;;;;;1532440;76;679;-55
2022/08/17 03:26:32;;;;;;;;;;;26.60;37.60;;;;;;1516481;76;1945;-54
2022/08/17 03:28:34;;;;;;;;;;;26.50;37.70;;;;;;1519729;76;666;-58
2022/08/17 03:30:36;;;;;;;;;;;26.60;37.60;;;;;;1515570;76;693;-58
2022/08/17 03:32:38;;;;;;;;;;;26.70;37.60;;;;;;1522227;76;1120;-56
2022/08/17 03:34:40;;;;;;;;;;;26.50;37.60;;;;;;1531908;76;678;-54
2022/08/17 03:36:42;;;;;;;;;;;26.50;37.60;;;;;;1515204;76;1538;-56
2022/08/17 03:38:44;;;;;;;;;;;26.70;37.60;;;;;;1538503;76;722;-58
2022/08/17 03:40:46;;;;;;;;;;;26.60;37.60;;;;;;1542835;76;691;-55
2022/08/17 03:42:49;;;;;;;;;;;26.60;37.60;;;;;;1538737;76;1106;-55
2022/08/17 03:44:51;;;;;;;;;;;26.60;37.60;;;;;;1538663;76;723;-58
2022/08/17 03:58:35;;;;;;;;;;;26.50;37.70;;;;;;1542036;76;1676;-55
2022/08/17 04:00:36;;;;;;;;;;;26.50;37.80;;;;;;1540976;76;1624;-57
2022/08/17 04:02:39;;;;;;;;;;;26.50;37.80;;;;;;1541913;76;1169;-57
2022/08/17 04:04:41;;;;;;;;;;;26.60;37.80;;;;;;1541982;76;1416;-57
2022/08/17 04:06:42;;;;;;;;;;;26.60;37.80;;;;;;1541748;76;1945;-56
2022/08/17 04:08:44;;;;;;;;;;;26.60;37.80;;;;;;1544211;76;718;-57
2022/08/17 04:10:46;;;;;;;;;;;26.60;37.80;;;;;;1540529;76;691;-56
2022/08/17 04:12:49;;;;;;;;;;;26.60;37.80;;;;;;1539828;76;1254;-56
2022/08/17 04:14:51;;;;;;;;;;;26.50;37.80;;;;;;1541278;76;750;-56
2022/08/17 04:16:53;;;;;;;;;;;26.50;37.80;;;;;;1542028;76;719;-56
2022/08/17 04:18:55;;;;;;;;;;;26.60;37.90;;;;;;1542148;76;1430;-59
2022/08/17 04:20:57;;;;;;;;;;;26.60;37.90;;;;;;1542737;76;693;-58
2022/08/17 04:23:03;;;;;;;;;;;26.60;37.90;;;;;;1541754;76;1092;-57
2022/08/17 04:25:10;;;;;;;;;;;26.60;37.90;;;;;;1540658;76;713;-58
2022/08/17 04:27:12;;;;;;;;;;;26.60;37.90;;;;;;1541815;76;1935;-56
2022/08/17 04:29:15;;;;;;;;;;;26.60;37.90;;;;;;1541207;76;683;-57
2022/08/17 04:31:17;;;;;;;;;;;26.50;38.00;;;;;;1541761;76;696;-58
2022/08/17 04:33:20;;;;;;;;;;;26.50;38.00;;;;;;1544992;76;1530;-59
2022/08/17 04:35:23;;;;;;;;;;;26.50;38.00;;;;;;1540970;76;680;-57
2022/08/17 04:37:25;;;;;;;;;;;26.50;37.90;;;;;;1541409;76;818;-56
2022/08/17 04:39:27;;;;;;;;;;;26.50;38.00;;;;;;1542405;76;695;-59
2022/08/17 04:43:53;;;;;;;;;;;26.50;38.10;;;;;;1541382;76;1640;-57
2022/08/17 04:45:54;;;;;;;;;;;26.50;38.00;;;;;;1541313;76;1617;-57
2022/08/17 04:47:56;;;;;;;;;;;26.50;38.10;;;;;;1542673;76;1936;-58
2022/08/17 04:50:01;;;;;;;;;;;26.50;38.10;;;;;;1542469;76;669;-59
2022/08/17 04:52:02;;;;;;;;;;;26.50;38.10;;;;;;1542408;76;1612;-56
2022/08/17 04:54:11;;;;;;;;;;;26.50;38.10;;;;;;1541770;76;1210;-58
2022/08/17 04:56:14;;;;;;;;;;;26.50;38.10;;;;;;1544449;76;684;-57
2022/08/17 04:58:16;;;;;;;;;;;26.50;38.00;;;;;;1541690;76;735;-58
2022/08/17 05:00:18;;;;;;;;;;;26.50;38.00;;;;;;1542373;76;1441;-56
2022/08/17 05:02:20;;;;;;;;;;;26.50;38.10;;;;;;1542423;76;660;-57
2022/08/17 05:04:23;;;;;;;;;;;26.50;38.10;;;;;;1541487;76;1061;-59
2022/08/17 05:06:25;;;;;;;;;;;26.50;38.10;;;;;;1540151;76;1951;-56
2022/08/17 05:08:27;;;;;;;;;;;26.60;38.00;;;;;;1537812;76;753;-57
2022/08/17 05:10:30;;;;;;;;;;;26.50;38.10;;;;;;1538331;76;704;-57
2022/08/17 05:12:32;;;;;;;;;;;26.50;38.10;;;;;;1538731;76;1166;-57
2022/08/17 05:14:33;;;;;;;;;;;26.50;38.10;;;;;;1542039;76;1492;-57
2022/08/17 05:16:35;;;;;;;;;;;26.50;38.10;;;;;;1542655;76;686;-57
2022/08/17 05:18:37;;;;;;;;;;;26.60;38.10;;;;;;1542686;76;687;-56
2022/08/17 05:20:40;;;;;;;;;;;26.50;38.10;;;;;;1542314;76;749;-56
2022/08/17 05:22:51;;;;;;;;;;;26.60;38.20;;;;;;1542196;76;1140;-57
2022/08/17 05:24:53;;;;;;;;;;;26.50;38.20;;;;;;1540005;76;689;-58
2022/08/17 05:26:55;;;;;;;;;;;26.60;38.30;;;;;;1539657;76;1932;-58
2022/08/17 05:28:57;;;;;;;;;;;26.60;38.40;;;;;;1542084;76;1463;-57
2022/08/17 05:31:00;;;;;;;;;;;26.60;38.40;;;;;;1538437;76;784;-57
2022/08/17 05:33:06;;;;;;;;;;;26.60;38.50;;;;;;1540498;76;1099;-59
2022/08/17 05:35:08;;;;;;;;;;;26.60;38.40;;;;;;1538339;76;906;-55
2022/08/17 05:37:10;;;;;;;;;;;26.60;38.40;;;;;;1541432;76;666;-58
2022/08/17 05:39:13;;;;;;;;;;;26.60;38.40;;;;;;1541887;76;786;-58
2022/08/17 05:41:15;;;;;;;;;;;26.50;38.40;;;;;;1541241;76;699;-57
2022/08/17 05:43:21;;;;;;;;;;;26.60;38.50;;;;;;1542251;76;1481;-55
2022/08/17 05:45:23;;;;;;;;;;;26.60;38.50;;;;;;1540433;76;704;-56
2022/08/17 05:47:25;;;;;;;;;;;26.60;38.50;;;;;;1539650;76;1923;-56
2022/08/17 05:49:27;;;;;;;;;;;26.70;38.50;;;;;;1542538;76;737;-57
2022/08/17 05:51:40;;;;;;;;;;;26.60;38.50;;;;;;1542028;76;732;-57
2022/08/17 05:53:43;;;;;;;;;;;26.60;38.50;;;;;;1540181;76;1136;-57
2022/08/17 05:55:47;;;;;;;;;;;26.70;38.60;;;;;;1540208;76;707;-57
2022/08/17 05:57:58;;;;;;;;;;;26.70;38.50;;;;;;1543733;76;1940;-57
2022/08/17 06:00:10;;;;;;;;;;;26.70;38.60;;;;;;1542036;76;1525;-54
2022/08/17 06:02:17;;;;;;;;;;;26.60;38.60;;;;;;1534442;76;653;-57
2022/08/17 06:04:20;;;;;;;;;;;26.70;38.60;;;;;;1541815;76;1079;-57
2022/08/17 06:06:43;;;;;;;;;;;26.60;38.60;;;;;;1541229;76;2113;-55
2022/08/17 06:09:02;;;;;;;;;;;26.60;38.70;;;;;;1540263;76;689;-57
2022/08/17 06:11:11;;;;;;;;;;;26.70;38.70;;;;;;1540609;76;1990;-56
2022/08/17 06:13:31;;;;;;;;;;;26.70;38.70;;;;;;1542049;76;1823;-55
2022/08/17 06:15:41;;;;;;;;;;;26.70;38.80;;;;;;1540484;76;647;-55
2022/08/17 06:17:43;;;;;;;;;;;26.70;38.90;;;;;;1534309;76;695;-54
2022/08/17 06:19:53;;;;;;;;;;;26.70;38.80;;;;;;1543169;76;680;-59
2022/08/17 06:21:55;;;;;;;;;;;26.70;38.70;;;;;;1542589;76;732;-57
2022/08/17 06:23:59;;;;;;;;;;;26.70;38.80;;;;;;1541883;76;1079;-57
2022/08/17 06:26:05;;;;;;;;;;;26.70;38.70;;;;;;1537351;76;1451;-56
2022/08/17 06:28:08;;;;;;;;;;;26.70;38.70;;;;;;1539645;76;1920;-57
2022/08/17 06:30:18;;;;;;;;;;;26.70;38.80;;;;;;1542375;76;715;-58
2022/08/17 06:32:20;;;;;;;;;;;26.70;38.80;;;;;;1541876;76;719;-57
2022/08/17 06:34:21;;;;;;;;;;;26.80;38.80;;;;;;1540158;76;1132;-58
2022/08/17 06:36:34;;;;;;;;;;;26.80;38.80;;;;;;1537146;76;1001;-59
2022/08/17 06:38:40;;;;;;;;;;;26.90;38.80;;;;;;1503413;78;1439;-57
2022/08/17 06:40:48;;;;;;;;;;;26.80;38.70;;;;;;1519098;76;1622;-56
2022/08/17 06:42:55;;;;;;;;;;;26.90;38.70;;;;;;1524450;76;1163;-55
2022/08/17 06:45:04;;;;;;;;;;;26.80;38.60;;;;;;1527685;76;734;-56
2022/08/17 06:47:09;;;;;;;;;;;26.80;38.70;;;;;;1525938;76;1936;-56
2022/08/17 06:49:13;;;;;;;;;;;26.80;38.80;;;;;;1532597;76;2039;-57
2022/08/17 06:51:17;;;;;;;;;;;26.80;38.80;;;;;;1529365;76;668;-57
2022/08/17 06:53:23;;;;;;;;;;;26.80;38.80;;;;;;1525652;76;1517;-58
2022/08/17 06:55:26;;;;;;;;;;;26.80;38.80;;;;;;1529312;76;768;-58
2022/08/17 06:57:28;;;;;;;;;;;26.80;38.80;;;;;;1528811;76;699;-58
2022/08/17 06:59:38;;;;;;;;;;;26.80;38.80;;;;;;1525826;76;702;-56
2022/08/17 07:01:40;;;;;;;;;;;26.80;38.90;;;;;;1527655;76;1877;-58
2022/08/17 07:03:53;;;;;;;;;;;26.90;39.10;;;;;;1528384;76;1083;-59
2022/08/17 07:05:54;;;;;;;;;;;26.90;38.80;;;;;;1526061;76;1540;-55
2022/08/17 07:08:04;;;;;;;;;;;26.90;38.70;;;;;;1528410;76;1940;-58
2022/08/17 07:10:06;;;;;;;;;;;26.70;38.80;;;;;;1526531;76;695;-56
2022/08/17 07:12:13;;;;;;;;;;;26.70;38.90;;;;;;1497678;78;1535;-57
2022/08/17 07:14:21;;;;;;;;;;;26.80;38.90;;;;;;1527028;76;1171;-55
2022/08/17 07:16:36;;;;;;;;;;;26.70;39.00;;;;;;1528421;76;2027;-55
2022/08/17 07:18:38;;;;;;;;;;;26.70;39.10;;;;;;1522296;76;742;-55
2022/08/17 07:20:41;;;;;;;;;;;26.70;39.20;;;;;;1527299;76;721;-58
2022/08/17 07:22:45;;;;;;;;;;;26.60;39.30;;;;;;1522014;76;1075;-56
2022/08/17 07:24:50;;;;;;;;;;;26.70;39.30;;;;;;1526249;76;2022;-58
2022/08/17 07:27:12;;;;;;;;;;;26.70;39.20;;;;;;1525458;76;756;-57
2022/08/17 07:29:14;;;;;;;;;;;26.70;39.20;;;;;;1529885;76;707;-57
2022/08/17 07:31:16;;;;;;;;;;;26.60;39.20;;;;;;1530596;76;662;-54
2022/08/17 07:33:19;;;;;;;;;;;26.60;39.20;;;;;;1528919;76;1112;-57
2022/08/17 07:35:23;;;;;;;;;;;26.60;39.20;;;;;;1524469;76;1297;-57
2022/08/17 07:37:25;;;;;;;;;;;26.60;39.20;;;;;;1528291;76;1699;-54
2022/08/17 07:39:27;;;;;;;;;;;26.50;39.20;;;;;;1528669;76;798;-57
2022/08/17 07:41:31;;;;;;;;;;;26.50;39.30;;;;;;1529203;76;657;-58
2022/08/17 07:43:40;;;;;;;;;;;26.50;39.20;;;;;;1527535;76;1114;-57
2022/08/17 07:48:20;;;;;;;;;;;26.50;39.30;;;;;;1522351;76;1916;-58
2022/08/17 07:50:27;;;;;;;;;;;26.50;39.30;;;;;;1529211;76;1525;-53
2022/08/17 07:52:30;;;;;;;;;;;26.50;39.30;;;;;;1528359;76;1487;-53
2022/08/17 07:54:34;;;;;;;;;;;26.50;39.40;;;;;;1526687;76;704;-56
2022/08/17 07:56:43;;;;;;;;;;;26.50;39.40;;;;;;1529252;76;913;-56
2022/08/17 07:58:47;;;;;;;;;;;26.50;39.40;;;;;;1527940;76;687;-56
2022/08/17 08:01:07;;;;;;;;;;;26.50;39.40;;;;;;1528494;76;1450;-53
2022/08/17 08:03:16;;;;;;;;;;;26.50;39.40;;;;;;1527663;76;1499;-57
2022/08/17 08:05:22;;;;;;;;;;;26.50;39.40;;;;;;1528693;76;741;-56
2022/08/17 08:07:25;;;;;;;;;;;26.40;39.50;;;;;;1529899;76;1944;-56
2022/08/17 08:09:31;;;;;;;;;;;26.50;39.50;;;;;;1529771;76;703;-56
2022/08/17 08:11:34;;;;;;;;;;;26.50;39.40;;;;;;1527962;76;620;-56
2022/08/17 08:13:41;;;;;;;;;;;26.50;39.40;;;;;;1529817;76;1159;-54
2022/08/17 08:15:42;;;;;;;;;;;26.40;39.50;;;;;;1532174;76;1450;-53
2022/08/17 08:17:57;;;;;;;;;;;26.40;39.50;;;;;;1521211;76;1464;-56
2022/08/17 08:19:59;;;;;;;;;;;26.40;39.50;;;;;;1525775;76;845;-55
2022/08/17 08:22:05;;;;;;;;;;;26.40;39.50;;;;;;1529230;76;618;-57
2022/08/17 08:24:27;;;;;;;;;;;26.40;39.50;;;;;;1528834;76;1101;-53
2022/08/17 08:26:30;;;;;;;;;;;26.40;39.60;;;;;;1529047;76;1779;-55
2022/08/17 08:28:53;;;;;;;;;;;26.40;39.60;;;;;;1530643;76;1922;-56
2022/08/17 08:30:56;;;;;;;;;;;26.50;39.60;;;;;;1529762;76;688;-55
2022/08/17 08:33:13;;;;;;;;;;;26.40;39.70;;;;;;1528420;76;1410;-56
2022/08/17 08:35:26;;;;;;;;;;;26.40;39.70;;;;;;1528030;76;809;-57
2022/08/17 08:37:33;;;;;;;;;;;26.40;39.70;;;;;;1530638;73;3050;-57
2022/08/17 08:39:40;;;;;;;;;;;26.40;39.70;;;;;;1510301;77;752;-54
2022/08/17 08:41:49;;;;;;;;;;;26.40;39.70;;;;;;1509064;77;1740;-52
2022/08/17 08:43:53;;;;;;;;;;;26.40;39.70;;;;;;1521639;77;1201;-57
2022/08/17 08:45:57;;;;;;;;;;;26.40;39.70;;;;;;1519742;77;1566;-55
2022/08/17 08:48:17;;;;;;;;;;;26.40;39.70;;;;;;1523111;77;1950;-56
2022/08/17 08:50:37;;;;;;;;;;;26.40;39.70;;;;;;1519852;77;782;-53
2022/08/17 08:52:40;;;;;;;;;;;26.40;39.70;;;;;;1517993;77;1145;-53
2022/08/17 08:54:46;;;;;;;;;;;26.40;39.70;;;;;;1521976;77;677;-57
2022/08/17 08:56:56;;;;;;;;;;;26.40;39.80;;;;;;1520932;77;712;-56
2022/08/17 08:59:02;;;;;;;;;;;26.40;39.70;;;;;;1518364;77;1709;-55
2022/08/17 09:01:07;;;;;;;;;;;26.40;39.80;;;;;;1521025;77;1612;-58
2022/08/17 09:03:22;;;;;;;;;;;26.40;39.80;;;;;;1517742;77;1169;-57
2022/08/17 09:05:25;;;;;;;;;;;26.40;39.80;;;;;;1520079;77;778;-54
2022/08/17 09:07:29;;;;;;;;;;;26.50;39.80;;;;;;1519635;77;1930;-55
2022/08/17 09:09:32;;;;;;;;;;;26.40;39.80;;;;;;1522629;77;678;-53
2022/08/17 09:11:42;;;;;;;;;;;26.40;39.80;;;;;;1517226;77;1841;-57
2022/08/17 09:13:46;;;;;;;;;;;26.40;39.80;;;;;;1521591;77;1914;-57
2022/08/17 09:15:49;;;;;;;;;;;26.50;39.70;;;;;;1517251;77;1798;-57
2022/08/17 09:17:53;;;;;;;;;;;26.40;39.70;;;;;;1520529;77;599;-57
2022/08/17 09:19:59;;;;;;;;;;;26.50;39.70;;;;;;1521606;77;1724;-54
2022/08/17 09:22:16;;;;;;;;;;;26.50;39.70;;;;;;1521166;77;1843;-55
2022/08/17 09:24:25;;;;;;;;;;;26.50;39.80;;;;;;1520065;77;1127;-57
2022/08/17 09:26:29;;;;;;;;;;;26.50;39.70;;;;;;1525586;77;640;-57
2022/08/17 09:28:35;;;;;;;;;;;26.50;39.70;;;;;;1510033;77;1916;-54
2022/08/17 09:30:38;;;;;;;;;;;26.60;39.70;;;;;;1521277;77;666;-57
2022/08/17 09:32:50;;;;;;;;;;;26.50;39.70;;;;;;1517824;77;1944;-57
2022/08/17 09:34:49;;;;;;;;;;;26.50;39.70;;;;;;1527097;77;1676;-53
2022/08/17 09:37:02;;;;;;;;;;;26.50;39.70;;;;;;1510292;77;1514;-57
2022/08/17 09:39:05;;;;;;;;;;;26.50;39.80;;;;;;1509160;78;736;-55
2022/08/17 09:41:09;;;;;;;;;;;26.50;39.80;;;;;;1513489;77;765;-57
2022/08/17 09:43:29;;;;;;;;;;;26.50;39.70;;;;;;1512275;77;1590;-56
2022/08/17 09:45:41;;;;;;;;;;;26.50;39.70;;;;;;1511589;77;682;-55
2022/08/17 09:47:45;;;;;;;;;;;26.50;39.70;;;;;;1507015;77;1941;-57
2022/08/17 09:49:48;;;;;;;;;;;26.50;39.80;;;;;;1492268;77;1687;-54
2022/08/17 09:51:52;;;;;;;;;;;26.60;39.90;;;;;;1509231;77;1780;-57
2022/08/17 09:53:54;;;;;;;;;;;26.60;39.80;;;;;;1512168;77;1825;-57
2022/08/17 09:56:13;;;;;;;;;;;26.60;40.20;;;;;;1492714;78;1599;-57
2022/08/17 09:58:21;;;;;;;;;;;26.70;40.20;;;;;;1507938;77;730;-56
2022/08/17 10:00:26;;;;;;;;;;;26.80;40.00;;;;;;1486987;77;1064;-57
2022/08/17 10:02:35;;;;;;;;;;;26.80;40.10;;;;;;1510340;77;1683;-58
2022/08/17 10:04:42;;;;;;;;;;;26.80;40.00;;;;;;1508949;78;669;-58
2022/08/17 10:06:48;;;;;;;;;;;26.80;40.10;;;;;;1510634;77;1919;-56
2022/08/17 10:08:52;;;;;;;;;;;26.90;40.10;;;;;;1503608;77;1925;-54
2022/08/17 10:11:05;;;;;;;;;;;26.90;40.30;;;;;;1506753;77;1576;-55
2022/08/17 10:13:08;;;;;;;;;;;26.90;40.90;;;;;;1502476;77;1124;-52
2022/08/17 10:15:17;;;;;;;;;;;26.90;40.90;;;;;;1508637;77;960;-56
2022/08/17 10:17:21;;;;;;;;;;;26.90;41.20;;;;;;1510924;77;779;-57
2022/08/17 10:19:24;;;;;;;;;;;26.90;41.30;;;;;;1510716;77;709;-57
2022/08/17 10:26:14;;;;;;;;;;;27.10;40.80;;;;;;1508309;77;1658;-59
2022/08/17 10:28:19;;;;;;;;;;;27.10;40.70;;;;;;1509687;77;1934;-56
2022/08/17 10:30:22;;;;;;;;;;;27.10;40.50;;;;;;1511173;77;919;-53
2022/08/17 10:32:31;;;;;;;;;;;27.20;40.50;;;;;;1510411;77;648;-56
2022/08/17 10:34:46;;;;;;;;;;;27.20;40.20;;;;;;1510568;77;810;-57
2022/08/17 10:37:02;;;;;;;;;;;27.20;40.10;;;;;;1512320;77;1165;-59
2022/08/17 10:39:18;;;;;;;;;;;27.20;40.20;;;;;;1508161;77;1587;-58
2022/08/17 10:41:35;;;;;;;;;;;27.30;40.20;;;;;;1509709;77;2152;-56
2022/08/17 10:43:57;;;;;;;;;;;27.30;40.20;;;;;;1508078;77;1493;-58
2022/08/17 10:46:01;;;;;;;;;;;27.30;40.00;;;;;;1509139;77;726;-55
2022/08/17 10:48:08;;;;;;;;;;;27.40;40.00;;;;;;1508917;77;1913;-54
2022/08/17 10:50:12;;;;;;;;;;;27.30;40.90;;;;;;1510681;77;733;-57
2022/08/17 10:52:21;;;;;;;;;;;27.20;40.50;;;;;;1508270;77;1605;-55
2022/08/17 10:54:25;;;;;;;;;;;27.40;40.20;;;;;;1514361;77;1189;-58
2022/08/17 10:56:41;;;;;;;;;;;27.40;40.10;;;;;;1509004;77;690;-59
2022/08/17 10:58:56;;;;;;;;;;;27.40;40.00;;;;;;1512721;77;775;-55
2022/08/17 11:00:58;;;;;;;;;;;27.40;40.10;;;;;;1510826;77;766;-59
2022/08/17 11:03:00;;;;;;;;;;;27.40;40.00;;;;;;1513280;77;1084;-60
2022/08/17 11:05:16;;;;;;;;;;;27.40;39.80;;;;;;1513002;77;780;-59
2022/08/17 11:07:20;;;;;;;;;;;27.40;39.70;;;;;;1510801;77;1706;-59
2022/08/17 11:09:26;;;;;;;;;;;27.40;39.70;;;;;;1512823;77;1937;-57
2022/08/17 11:11:36;;;;;;;;;;;27.40;40.00;;;;;;1510288;77;680;-57
2022/08/17 11:13:48;;;;;;;;;;;27.40;40.00;;;;;;1498268;77;1293;-56
2022/08/17 11:16:08;;;;;;;;;;;27.50;39.80;;;;;;1510964;78;1799;-59
2022/08/17 11:18:18;;;;;;;;;;;27.50;39.60;;;;;;1511178;78;747;-58
2022/08/17 11:20:21;;;;;;;;;;;27.40;39.70;;;;;;1507629;77;1377;-59
2022/08/17 11:22:40;;;;;;;;;;;27.40;39.60;;;;;;1511333;77;2075;-59
2022/08/17 11:24:50;;;;;;;;;;;27.50;39.60;;;;;;1510924;77;1963;-58
2022/08/17 11:27:02;;;;;;;;;;;27.50;39.50;;;;;;1511999;77;659;-59
2022/08/17 11:29:07;;;;;;;;;;;27.50;39.60;;;;;;1510118;77;1926;-59
2022/08/17 11:31:09;;;;;;;;;;;27.40;39.50;;;;;;1511664;77;1647;-55
2022/08/17 11:33:31;;;;;;;;;;;27.40;39.60;;;;;;1510869;77;1141;-59
2022/08/17 11:35:35;;;;;;;;;;;27.40;39.80;;;;;;1504409;77;1579;-54
2022/08/17 11:37:47;;;;;;;;;;;27.30;39.90;;;;;;1515399;77;941;-56
2022/08/17 11:40:03;;;;;;;;;;;27.40;40.10;;;;;;1510244;77;1905;-54
2022/08/17 11:42:11;;;;;;;;;;;27.30;40.00;;;;;;1513688;77;1631;-59
2022/08/17 11:44:23;;;;;;;;;;;27.30;40.00;;;;;;1507171;77;2160;-57
2022/08/17 11:53:39;;;;;;;;;;;27.50;39.40;;;;;;1506282;77;1891;-58
2022/08/17 11:55:43;;;;;;;;;;;27.50;39.40;;;;;;1505747;77;723;-57
2022/08/17 11:57:45;;;;;;;;;;;27.50;39.30;;;;;;1509016;77;703;-57
2022/08/17 11:59:49;;;;;;;;;;;27.40;39.30;;;;;;1506900;77;769;-59
2022/08/17 12:01:54;;;;;;;;;;;27.50;39.40;;;;;;1510287;77;663;-54
2022/08/17 12:04:02;;;;;;;;;;;27.50;39.20;;;;;;1512030;77;1607;-59
2022/08/17 12:06:16;;;;;;;;;;;27.40;39.40;;;;;;1492910;77;1195;-55
2022/08/17 12:08:20;;;;;;;;;;;27.40;39.60;;;;;;1506896;77;1932;-58
2022/08/17 12:10:30;;;;;;;;;;;27.40;40.10;;;;;;1509047;77;806;-57
2022/08/17 12:12:32;;;;;;;;;;;27.30;40.10;;;;;;1511066;77;1285;-59
2022/08/17 12:14:32;;;;;;;;;;;27.40;40.00;;;;;;1507811;77;1638;-59
2022/08/17 12:16:34;;;;;;;;;;;27.40;40.10;;;;;;1511805;77;1456;-58
2022/08/17 12:18:38;;;;;;;;;;;27.50;39.90;;;;;;1512518;77;656;-55
2022/08/17 12:20:41;;;;;;;;;;;27.70;39.90;;;;;;1512591;77;674;-59
2022/08/17 12:22:56;;;;;;;;;;;27.60;39.80;;;;;;1513793;77;1176;-58
2022/08/17 12:25:11;;;;;;;;;;;27.70;39.70;;;;;;1507958;77;1659;-55
2022/08/17 12:27:14;;;;;;;;;;;27.70;39.80;;;;;;1512453;77;703;-58
2022/08/17 12:29:16;;;;;;;;;;;27.70;39.90;;;;;;1512694;77;1945;-59
2022/08/17 12:31:23;;;;;;;;;;;27.70;39.90;;;;;;1504136;77;1621;-57
2022/08/17 12:33:27;;;;;;;;;;;27.70;39.90;;;;;;1511830;77;1126;-59
2022/08/17 12:35:35;;;;;;;;;;;27.70;39.90;;;;;;1511907;77;641;-59
2022/08/17 12:37:39;;;;;;;;;;;27.60;40.00;;;;;;1508424;77;696;-60
2022/08/17 12:39:42;;;;;;;;;;;27.50;40.10;;;;;;1502635;77;1161;-59
2022/08/17 12:41:46;;;;;;;;;;;27.60;40.00;;;;;;1508659;77;1874;-57
2022/08/17 12:44:00;;;;;;;;;;;27.60;39.90;;;;;;1515862;77;1147;-58
2022/08/17 12:46:01;;;;;;;;;;;27.70;39.70;;;;;;1506744;77;1734;-58
2022/08/17 12:48:09;;;;;;;;;;;27.70;39.70;;;;;;1512643;77;728;-58
2022/08/17 12:50:12;;;;;;;;;;;27.70;39.40;;;;;;1510590;77;1929;-59
2022/08/17 12:52:15;;;;;;;;;;;27.70;39.20;;;;;;1512201;77;759;-59
2022/08/17 12:54:22;;;;;;;;;;;27.60;39.60;;;;;;1509672;77;1121;-59